Time,TemperatureF,DewpointF,PressureIn,WindDirection,WindDirectionDegrees,WindSpeedMPH,WindSpeedGustMPH,Humidity,HourlyPrecipIn,Conditions,Clouds,dailyrainin,SoftwareType,DateUTC
2013-02-20 00:00:00,32.4,20.1,29.85,SW,229,0.0,1.0,60,0.00,,---,0.01,VWS V14.01,2013-02-20 05:00:00,
2013-02-20 00:05:00,32.5,19.8,29.85,West,271,0.0,4.0,59,0.00,,---,0.00,VWS V14.01,2013-02-20 05:05:00,
2013-02-20 00:10:00,32.5,20.6,29.85,NNW,331,0.0,4.0,61,0.00,,---,0.00,VWS V14.01,2013-02-20 05:10:00,
2013-02-20 00:15:00,32.4,20.1,29.86,NNW,329,1.0,7.0,60,0.00,,---,0.00,VWS V14.01,2013-02-20 05:15:00,
2013-02-20 00:20:00,32.1,20.6,29.85,NW,311,6.0,6.0,62,0.00,,---,0.00,VWS V14.01,2013-02-20 05:20:00,
2013-02-20 00:25:00,32.0,20.9,29.85,WSW,250,2.0,5.0,63,0.00,,---,0.00,VWS V14.01,2013-02-20 05:25:00,
2013-02-20 00:30:00,31.8,20.7,29.85,NW,323,0.0,5.0,63,0.00,,---,0.00,VWS V14.01,2013-02-20 05:30:00,
2013-02-20 00:35:00,31.7,20.9,29.86,North,350,1.0,2.0,64,0.00,,---,0.00,VWS V14.01,2013-02-20 05:35:00,
2013-02-20 00:40:00,31.6,21.2,29.86,WNW,301,1.0,2.0,65,0.00,,---,0.00,VWS V14.01,2013-02-20 05:40:00,
2013-02-20 00:45:00,31.6,21.6,29.86,NE,34,0.0,0.0,66,0.00,,---,0.00,VWS V14.01,2013-02-20 05:45:00,
2013-02-20 00:50:00,31.5,21.5,29.86,North,354,0.0,0.0,66,0.00,,---,0.00,VWS V14.01,2013-02-20 05:50:00,
2013-02-20 00:56:00,31.0,21.3,29.85,NE,47,5.0,5.0,67,0.00,,---,0.00,VWS V14.01,2013-02-20 05:56:00,
2013-02-20 01:01:00,31.0,19.9,29.85,ENE,77,1.0,2.0,63,0.00,,---,0.00,VWS V14.01,2013-02-20 06:01:00,
2013-02-20 01:06:00,31.0,19.9,29.86,NW,316,0.0,0.0,63,0.00,,---,0.00,VWS V14.01,2013-02-20 06:06:00,
2013-02-20 01:11:00,30.8,19.3,29.86,WSW,238,2.0,7.0,62,0.00,,---,0.00,VWS V14.01,2013-02-20 06:11:00,
2013-02-20 01:16:00,30.9,19.0,29.86,NNW,347,3.0,13.0,61,0.00,,---,0.00,VWS V14.01,2013-02-20 06:16:00,
2013-02-20 01:21:00,30.9,19.0,29.86,North,1,1.0,3.0,61,0.00,,---,0.00,VWS V14.01,2013-02-20 06:21:00,
2013-02-20 01:26:00,31.0,19.1,29.86,North,350,3.0,5.0,61,0.00,,---,0.00,VWS V14.01,2013-02-20 06:26:00,
2013-02-20 01:31:00,31.0,19.1,29.86,NNW,347,0.0,1.0,61,0.00,,---,0.00,VWS V14.01,2013-02-20 06:31:00,
2013-02-20 01:37:00,30.9,19.4,29.86,WNW,301,3.0,6.0,62,0.00,,---,0.00,VWS V14.01,2013-02-20 06:37:00,
2013-02-20 01:42:00,30.9,19.0,29.87,ENE,72,3.0,5.0,61,0.00,,---,0.00,VWS V14.01,2013-02-20 06:42:00,
2013-02-20 01:47:00,30.9,20.2,29.87,NNE,18,1.0,1.0,64,0.00,,---,0.00,VWS V14.01,2013-02-20 06:47:00,
2013-02-20 01:52:00,30.8,20.1,29.87,NNE,30,4.0,4.0,64,0.00,,---,0.00,VWS V14.01,2013-02-20 06:52:00,
2013-02-20 01:57:00,30.6,18.4,29.88,NNE,30,1.0,1.0,60,0.00,,---,0.00,VWS V14.01,2013-02-20 06:57:00,
2013-02-20 02:02:00,30.4,19.0,29.88,NNE,27,2.0,4.0,62,0.00,,---,0.00,VWS V14.01,2013-02-20 07:02:00,
2013-02-20 02:07:00,30.2,17.2,29.88,WSW,248,0.0,9.0,58,0.00,,---,0.00,VWS V14.01,2013-02-20 07:07:00,
2013-02-20 02:12:00,30.2,17.6,29.88,NE,34,5.0,6.0,59,0.00,,---,0.00,VWS V14.01,2013-02-20 07:12:00,
2013-02-20 02:17:00,30.0,17.4,29.88,NNE,29,4.0,4.0,59,0.00,,---,0.00,VWS V14.01,2013-02-20 07:17:00,
2013-02-20 02:22:00,29.8,17.6,29.89,NE,47,3.0,4.0,60,0.00,,---,0.00,VWS V14.01,2013-02-20 07:22:00,
2013-02-20 02:27:00,29.7,17.9,29.88,ESE,106,2.0,3.0,61,0.00,,---,0.00,VWS V14.01,2013-02-20 07:27:00,
2013-02-20 02:32:00,29.5,17.0,29.88,NNE,32,2.0,4.0,59,0.00,,---,0.00,VWS V14.01,2013-02-20 07:32:00,
2013-02-20 02:37:00,29.4,16.9,29.87,NNE,25,6.0,6.0,59,0.00,,---,0.00,VWS V14.01,2013-02-20 07:37:00,
2013-02-20 02:42:00,29.3,16.4,29.87,NE,34,4.0,7.0,58,0.00,,---,0.00,VWS V14.01,2013-02-20 07:42:00,
2013-02-20 02:47:00,29.1,16.6,29.88,East,93,2.0,3.0,59,0.00,,---,0.00,VWS V14.01,2013-02-20 07:47:00,
2013-02-20 02:52:00,29.0,16.9,29.88,WNW,285,1.0,4.0,60,0.00,,---,0.00,VWS V14.01,2013-02-20 07:52:00,
2013-02-20 02:57:00,28.9,16.0,29.88,NE,53,5.0,7.0,58,0.00,,---,0.00,VWS V14.01,2013-02-20 07:57:00,
2013-02-20 03:05:00,28.9,17.5,29.89,NNE,23,1.0,1.0,62,0.00,,---,0.00,VWS V14.01,2013-02-20 08:05:00,
2013-02-20 03:10:00,28.7,17.0,29.89,East,86,0.0,3.0,61,0.00,,---,0.00,VWS V14.01,2013-02-20 08:10:00,
2013-02-20 03:15:00,28.6,16.9,29.89,NE,42,0.0,1.0,61,0.00,,---,0.00,VWS V14.01,2013-02-20 08:15:00,
2013-02-20 03:20:00,28.5,16.8,29.89,ENE,75,3.0,3.0,61,0.00,,---,0.00,VWS V14.01,2013-02-20 08:20:00,
2013-02-20 03:25:00,28.3,15.8,29.88,NE,34,1.0,4.0,59,0.00,,---,0.00,VWS V14.01,2013-02-20 08:25:00,
2013-02-20 03:30:00,28.2,16.1,29.88,East,92,2.0,4.0,60,0.00,,---,0.00,VWS V14.01,2013-02-20 08:30:00,
2013-02-20 03:35:00,27.9,16.2,29.88,NE,39,0.0,2.0,61,0.00,,---,0.00,VWS V14.01,2013-02-20 08:35:00,
2013-02-20 03:41:00,27.8,15.7,29.88,NNE,23,1.0,2.0,60,0.00,,---,0.00,VWS V14.01,2013-02-20 08:41:00,
2013-02-20 03:46:00,27.7,16.0,29.88,SSW,212,2.0,3.0,61,0.00,,---,0.00,VWS V14.01,2013-02-20 08:46:00,
2013-02-20 03:51:00,27.7,15.3,29.88,SSE,150,0.0,3.0,59,0.00,,---,0.00,VWS V14.01,2013-02-20 08:51:00,
2013-02-20 03:56:00,27.7,15.6,29.89,East,81,1.0,2.0,60,0.00,,---,0.00,VWS V14.01,2013-02-20 08:56:00,
2013-02-20 04:01:00,27.8,15.4,29.89,SE,125,1.0,3.0,59,0.00,,---,0.00,VWS V14.01,2013-02-20 09:01:00,
2013-02-20 04:06:00,27.9,15.8,29.90,WNW,302,0.0,2.0,60,0.00,,---,0.00,VWS V14.01,2013-02-20 09:06:00,
2013-02-20 04:11:00,27.9,15.8,29.90,North,4,2.0,3.0,60,0.00,,---,0.00,VWS V14.01,2013-02-20 09:11:00,
2013-02-20 04:16:00,27.8,15.4,29.90,WNW,297,5.0,5.0,59,0.00,,---,0.00,VWS V14.01,2013-02-20 09:16:00,
2013-02-20 04:21:00,27.8,14.6,29.90,SSE,160,1.0,4.0,57,0.00,,---,0.00,VWS V14.01,2013-02-20 09:21:00,
2013-02-20 04:26:00,27.6,14.0,29.91,West,277,0.0,2.0,56,0.00,,---,0.00,VWS V14.01,2013-02-20 09:26:00,
2013-02-20 04:32:00,27.5,13.9,29.91,North,3,1.0,1.0,56,0.00,,---,0.00,VWS V14.01,2013-02-20 09:32:00,
2013-02-20 04:37:00,27.3,14.5,29.91,NNE,30,3.0,3.0,58,0.00,,---,0.00,VWS V14.01,2013-02-20 09:37:00,
2013-02-20 04:42:00,27.2,13.6,29.92,NW,310,0.0,2.0,56,0.00,,---,0.00,VWS V14.01,2013-02-20 09:42:00,
2013-02-20 04:47:00,27.1,13.5,29.92,NE,37,1.0,1.0,56,0.00,,---,0.00,VWS V14.01,2013-02-20 09:47:00,
2013-02-20 04:52:00,27.0,13.4,29.92,WNW,296,3.0,3.0,56,0.00,,---,0.00,VWS V14.01,2013-02-20 09:52:00,
2013-02-20 04:57:00,26.9,13.7,29.92,SW,221,2.0,2.0,57,0.00,,---,0.00,VWS V14.01,2013-02-20 09:57:00,
2013-02-20 05:02:00,26.9,14.1,29.93,SE,145,0.0,0.0,58,0.00,,---,0.00,VWS V14.01,2013-02-20 10:02:00,
2013-02-20 05:07:00,26.8,13.6,29.92,NE,37,2.0,3.0,57,0.00,,---,0.00,VWS V14.01,2013-02-20 10:07:00,
2013-02-20 05:12:00,26.7,13.1,29.93,WNW,290,1.0,2.0,56,0.00,,---,0.00,VWS V14.01,2013-02-20 10:12:00,
2013-02-20 05:17:00,26.7,13.5,29.93,West,267,0.0,1.0,57,0.00,,---,0.00,VWS V14.01,2013-02-20 10:17:00,
2013-02-20 05:22:00,26.7,13.5,29.93,NW,311,0.0,1.0,57,0.00,,---,0.00,VWS V14.01,2013-02-20 10:22:00,
2013-02-20 05:27:00,26.6,13.8,29.93,NNE,22,1.0,3.0,58,0.00,,---,0.00,VWS V14.01,2013-02-20 10:27:00,
2013-02-20 05:32:00,26.6,13.4,29.93,SSW,209,0.0,6.0,57,0.00,,---,0.00,VWS V14.01,2013-02-20 10:32:00,
2013-02-20 05:37:00,26.6,14.2,29.93,WNW,300,1.0,4.0,59,0.00,,---,0.00,VWS V14.01,2013-02-20 10:37:00,
2013-02-20 05:42:00,26.5,14.1,29.93,WSW,248,0.0,7.0,59,0.00,,---,0.00,VWS V14.01,2013-02-20 10:42:00,
2013-02-20 05:47:00,26.3,14.7,29.93,North,351,1.0,5.0,61,0.00,,---,0.00,VWS V14.01,2013-02-20 10:47:00,
2013-02-20 05:52:00,26.1,14.9,29.93,SE,132,0.0,4.0,62,0.00,,---,0.00,VWS V14.01,2013-02-20 10:52:00,
2013-02-20 05:57:00,25.9,14.7,29.93,NE,46,0.0,6.0,62,0.00,,---,0.00,VWS V14.01,2013-02-20 10:57:00,
2013-02-20 06:02:00,25.7,14.5,29.93,NE,36,1.0,5.0,62,0.00,,---,0.00,VWS V14.01,2013-02-20 11:02:00,
2013-02-20 06:07:00,25.6,14.0,29.94,East,80,5.0,5.0,61,0.00,,---,0.00,VWS V14.01,2013-02-20 11:07:00,
2013-02-20 06:13:00,25.5,14.7,29.94,SW,225,0.0,2.0,63,0.00,,---,0.00,VWS V14.01,2013-02-20 11:13:00,
2013-02-20 06:18:00,25.4,14.2,29.94,WSW,249,0.0,1.0,62,0.00,,---,0.00,VWS V14.01,2013-02-20 11:18:00,
2013-02-20 06:23:00,25.4,14.6,29.94,NW,317,3.0,5.0,63,0.00,,---,0.00,VWS V14.01,2013-02-20 11:23:00,
2013-02-20 06:28:00,25.5,14.7,29.95,NE,53,1.0,1.0,63,0.00,,---,0.00,VWS V14.01,2013-02-20 11:28:00,
2013-02-20 06:33:00,25.4,14.6,29.95,NE,43,2.0,3.0,63,0.00,,---,0.00,VWS V14.01,2013-02-20 11:33:00,
2013-02-20 06:39:00,25.5,14.3,29.95,NE,52,0.0,3.0,62,0.00,,---,0.00,VWS V14.01,2013-02-20 11:39:00,
2013-02-20 06:44:00,25.5,14.7,29.95,NE,44,1.0,1.0,63,0.00,,---,0.00,VWS V14.01,2013-02-20 11:44:00,
2013-02-20 06:49:00,25.5,14.3,29.96,NE,47,0.0,2.0,62,0.00,,---,0.00,VWS V14.01,2013-02-20 11:49:00,
2013-02-20 06:54:00,25.5,13.9,29.96,NW,304,0.0,3.0,61,0.00,,---,0.00,VWS V14.01,2013-02-20 11:54:00,
2013-02-20 06:59:00,25.5,14.3,29.96,ENE,73,0.0,2.0,62,0.00,,---,0.00,VWS V14.01,2013-02-20 11:59:00,
2013-02-20 07:04:00,25.5,13.9,29.96,North,6,7.0,8.0,61,0.00,,---,0.00,VWS V14.01,2013-02-20 12:04:00,
2013-02-20 07:09:00,25.5,13.9,29.97,WNW,301,0.0,2.0,61,0.00,,---,0.00,VWS V14.01,2013-02-20 12:09:00,
2013-02-20 07:15:00,25.5,14.3,29.97,ENE,77,0.0,0.0,62,0.00,,---,0.00,VWS V14.01,2013-02-20 12:15:00,
2013-02-20 07:20:00,25.5,14.3,29.97,NNW,338,2.0,7.0,62,0.00,,---,0.00,VWS V14.01,2013-02-20 12:20:00,
2013-02-20 07:25:00,25.4,13.1,29.98,East,96,0.0,3.0,59,0.00,,---,0.00,VWS V14.01,2013-02-20 12:25:00,
2013-02-20 07:30:00,25.3,13.0,29.98,East,83,2.0,2.0,59,0.00,,---,0.00,VWS V14.01,2013-02-20 12:30:00,
2013-02-20 07:35:00,25.3,13.8,29.98,SSE,152,0.0,2.0,61,0.00,,---,0.00,VWS V14.01,2013-02-20 12:35:00,
2013-02-20 07:40:00,25.2,13.3,29.98,NNW,331,2.0,5.0,60,0.00,,---,0.00,VWS V14.01,2013-02-20 12:40:00,
2013-02-20 07:45:00,25.1,13.6,29.99,NE,47,3.0,3.0,61,0.00,,---,0.00,VWS V14.01,2013-02-20 12:45:00,
2013-02-20 07:50:00,25.1,13.2,29.99,North,5,2.0,3.0,60,0.00,,---,0.00,VWS V14.01,2013-02-20 12:50:00,
2013-02-20 07:55:00,25.1,13.2,29.99,NNW,344,0.0,1.0,60,0.00,,---,0.00,VWS V14.01,2013-02-20 12:55:00,
2013-02-20 08:01:00,25.2,13.6,30.00,WNW,284,2.0,3.0,61,0.00,,---,0.00,VWS V14.01,2013-02-20 13:01:00,
2013-02-20 08:06:00,25.3,13.4,30.00,NNW,342,2.0,2.0,60,0.00,,---,0.00,VWS V14.01,2013-02-20 13:06:00,
2013-02-20 08:11:00,25.4,13.8,30.00,WSW,240,1.0,4.0,61,0.00,,---,0.00,VWS V14.01,2013-02-20 13:11:00,
2013-02-20 08:16:00,25.6,14.0,29.99,North,353,2.0,5.0,61,0.00,,---,0.00,VWS V14.01,2013-02-20 13:16:00,
2013-02-20 08:21:00,25.7,13.8,30.00,NNE,26,3.0,4.0,60,0.00,,---,0.00,VWS V14.01,2013-02-20 13:21:00,
2013-02-20 08:26:00,25.7,14.1,30.00,WNW,300,1.0,3.0,61,0.00,,---,0.00,VWS V14.01,2013-02-20 13:26:00,
2013-02-20 08:32:00,25.8,14.2,30.00,North,356,4.0,6.0,61,0.00,,---,0.00,VWS V14.01,2013-02-20 13:32:00,
2013-02-20 08:37:00,25.7,13.8,30.00,NE,39,2.0,2.0,60,0.00,,---,0.00,VWS V14.01,2013-02-20 13:37:00,
2013-02-20 08:42:00,25.7,14.1,30.00,East,98,1.0,2.0,61,0.00,,---,0.00,VWS V14.01,2013-02-20 13:42:00,
2013-02-20 08:47:00,25.8,14.6,30.00,North,11,1.0,1.0,62,0.00,,---,0.00,VWS V14.01,2013-02-20 13:47:00,
2013-02-20 08:52:00,25.7,14.5,30.00,NNW,347,1.0,2.0,62,0.00,,---,0.00,VWS V14.01,2013-02-20 13:52:00,
2013-02-20 08:57:00,25.5,14.3,30.00,WSW,255,0.0,1.0,62,0.00,,---,0.00,VWS V14.01,2013-02-20 13:57:00,
2013-02-20 09:02:00,25.4,13.8,30.00,East,98,4.0,4.0,61,0.00,,---,0.00,VWS V14.01,2013-02-20 14:02:00,
2013-02-20 09:07:00,25.5,14.3,30.00,SE,139,5.0,5.0,62,0.00,,---,0.00,VWS V14.01,2013-02-20 14:07:00,
2013-02-20 09:12:00,25.6,14.0,30.00,North,352,3.0,5.0,61,0.00,,---,0.00,VWS V14.01,2013-02-20 14:12:00,
2013-02-20 09:17:00,25.8,15.0,30.00,North,352,0.0,0.0,63,0.00,,---,0.00,VWS V14.01,2013-02-20 14:17:00,
2013-02-20 09:22:00,25.9,14.7,30.00,NNW,341,0.0,0.0,62,0.00,,---,0.00,VWS V14.01,2013-02-20 14:22:00,
2013-02-20 09:27:00,25.9,14.3,29.99,West,274,0.0,4.0,61,0.00,,---,0.00,VWS V14.01,2013-02-20 14:27:00,
2013-02-20 09:32:00,25.9,14.3,29.99,ENE,60,0.0,6.0,61,0.00,,---,0.00,VWS V14.01,2013-02-20 14:32:00,
2013-02-20 09:37:00,25.8,14.2,29.99,West,280,0.0,1.0,61,0.00,,---,0.00,VWS V14.01,2013-02-20 14:37:00,
2013-02-20 09:42:00,25.9,14.3,29.99,North,4,1.0,3.0,61,0.00,,---,0.00,VWS V14.01,2013-02-20 14:42:00,
2013-02-20 09:47:00,25.9,13.9,29.99,NNE,30,2.0,6.0,60,0.00,,---,0.00,VWS V14.01,2013-02-20 14:47:00,
2013-02-20 09:52:00,26.0,14.4,29.99,North,6,0.0,3.0,61,0.00,,---,0.00,VWS V14.01,2013-02-20 14:52:00,
2013-02-20 09:57:00,26.0,14.4,29.99,ENE,74,0.0,3.0,61,0.00,,---,0.00,VWS V14.01,2013-02-20 14:57:00,
2013-02-20 10:02:00,26.1,14.5,29.99,North,356,0.0,2.0,61,0.00,,---,0.00,VWS V14.01,2013-02-20 15:02:00,
2013-02-20 10:07:00,26.1,14.9,30.00,NNW,340,3.0,4.0,62,0.00,,---,0.00,VWS V14.01,2013-02-20 15:07:00,
2013-02-20 10:12:00,26.3,15.1,29.99,West,266,0.0,5.0,62,0.00,,---,0.00,VWS V14.01,2013-02-20 15:12:00,
2013-02-20 10:17:00,26.3,14.7,29.99,WSW,248,0.0,4.0,61,0.00,,---,0.00,VWS V14.01,2013-02-20 15:17:00,
2013-02-20 10:22:00,26.4,14.8,30.00,North,8,2.0,2.0,61,0.00,,---,0.00,VWS V14.01,2013-02-20 15:22:00,
2013-02-20 10:28:00,26.6,15.4,30.00,NW,308,3.0,4.0,62,0.00,,---,0.00,VWS V14.01,2013-02-20 15:28:00,
2013-02-20 10:33:00,26.7,15.1,30.00,NNE,18,2.0,3.0,61,0.00,,---,0.00,VWS V14.01,2013-02-20 15:33:00,
2013-02-20 10:38:00,26.9,15.6,30.00,NNW,331,2.0,3.0,62,0.00,,---,0.00,VWS V14.01,2013-02-20 15:38:00,
2013-02-20 10:43:00,26.9,15.6,30.00,ESE,106,0.0,1.0,62,0.00,,---,0.00,VWS V14.01,2013-02-20 15:43:00,
2013-02-20 10:48:00,27.1,15.8,30.00,WSW,245,2.0,2.0,62,0.00,,---,0.00,VWS V14.01,2013-02-20 15:48:00,
2013-02-20 10:53:00,27.1,15.4,30.00,WNW,297,6.0,6.0,61,0.00,,---,0.00,VWS V14.01,2013-02-20 15:53:00,
2013-02-20 10:58:00,27.1,15.4,30.00,North,359,0.0,3.0,61,0.00,,---,0.00,VWS V14.01,2013-02-20 15:58:00,
2013-02-20 11:03:00,27.2,15.6,30.00,North,354,0.0,1.0,61,0.00,,---,0.00,VWS V14.01,2013-02-20 16:03:00,
2013-02-20 11:09:00,27.2,15.6,30.00,NNE,16,4.0,4.0,61,0.00,,---,0.00,VWS V14.01,2013-02-20 16:09:00,
2013-02-20 11:14:00,27.3,16.4,30.00,WSW,253,9.0,9.0,63,0.00,,---,0.00,VWS V14.01,2013-02-20 16:14:00,
2013-02-20 11:19:00,27.4,16.5,30.00,West,274,2.0,5.0,63,0.00,,---,0.00,VWS V14.01,2013-02-20 16:19:00,
2013-02-20 11:24:00,27.5,16.2,30.01,WSW,256,1.0,2.0,62,0.00,,---,0.00,VWS V14.01,2013-02-20 16:24:00,
2013-02-20 11:29:00,27.4,16.1,30.00,NW,308,2.0,4.0,62,0.00,,---,0.00,VWS V14.01,2013-02-20 16:29:00,
2013-02-20 11:34:00,27.6,16.3,30.01,NNW,335,2.0,4.0,62,0.00,,---,0.00,VWS V14.01,2013-02-20 16:34:00,
2013-02-20 11:39:00,27.7,16.0,30.01,WNW,290,1.0,4.0,61,0.00,,---,0.00,VWS V14.01,2013-02-20 16:39:00,
2013-02-20 11:44:00,28.1,16.8,30.00,North,358,0.0,2.0,62,0.00,,---,0.00,VWS V14.01,2013-02-20 16:44:00,
2013-02-20 11:49:00,28.5,16.0,30.00,NE,40,2.0,3.0,59,0.00,,---,0.00,VWS V14.01,2013-02-20 16:49:00,
2013-02-20 11:54:00,28.9,16.4,30.00,North,360,0.0,5.0,59,0.00,,---,0.00,VWS V14.01,2013-02-20 16:54:00,
2013-02-20 11:59:00,28.9,15.2,30.00,West,269,5.0,9.0,56,0.00,,---,0.00,VWS V14.01,2013-02-20 16:59:00,
2013-02-20 12:04:00,28.8,15.1,30.00,NW,310,7.0,7.0,56,0.00,,---,0.00,VWS V14.01,2013-02-20 17:04:00,
2013-02-20 12:09:00,28.7,14.6,30.00,WNW,294,4.0,5.0,55,0.00,,---,0.00,VWS V14.01,2013-02-20 17:09:00,
2013-02-20 12:14:00,28.8,15.1,30.00,NNE,18,0.0,5.0,56,0.00,,---,0.00,VWS V14.01,2013-02-20 17:14:00,
2013-02-20 12:20:00,28.8,14.7,30.00,South,176,1.0,2.0,55,0.00,,---,0.00,VWS V14.01,2013-02-20 17:20:00,
2013-02-20 12:25:00,28.7,14.2,30.00,NNW,346,3.0,4.0,54,0.00,,---,0.00,VWS V14.01,2013-02-20 17:25:00,
2013-02-20 12:30:00,28.8,14.7,29.99,WNW,301,3.0,4.0,55,0.00,,---,0.00,VWS V14.01,2013-02-20 17:30:00,
2013-02-20 12:35:00,28.3,13.8,30.00,NNW,335,4.0,6.0,54,0.00,,---,0.00,VWS V14.01,2013-02-20 17:35:00,
2013-02-20 12:40:00,28.0,14.3,30.00,ENE,65,0.0,4.0,56,0.00,,---,0.00,VWS V14.01,2013-02-20 17:40:00,
2013-02-20 12:45:00,28.0,14.3,30.00,NNW,342,3.0,3.0,56,0.00,,---,0.00,VWS V14.01,2013-02-20 17:45:00,
2013-02-20 12:50:00,28.0,13.9,30.00,North,359,0.0,2.0,55,0.00,,---,0.00,VWS V14.01,2013-02-20 17:50:00,
2013-02-20 12:55:00,27.9,14.2,30.00,WSW,246,0.0,2.0,56,0.00,,---,0.00,VWS V14.01,2013-02-20 17:55:00,
2013-02-20 13:01:00,27.7,14.5,30.00,WNW,284,1.0,1.0,57,0.00,,---,0.00,VWS V14.01,2013-02-20 18:01:00,
2013-02-20 13:06:00,27.7,14.5,30.00,NE,53,1.0,1.0,57,0.00,,---,0.00,VWS V14.01,2013-02-20 18:06:00,
2013-02-20 13:11:00,27.7,14.5,30.00,WNW,300,4.0,4.0,57,0.00,,---,0.00,VWS V14.01,2013-02-20 18:11:00,
2013-02-20 13:16:00,27.7,14.1,30.00,NE,46,0.0,5.0,56,0.00,,---,0.00,VWS V14.01,2013-02-20 18:16:00,
2013-02-20 13:21:00,27.8,14.2,30.00,SSW,193,1.0,3.0,56,0.00,,---,0.00,VWS V14.01,2013-02-20 18:21:00,
2013-02-20 13:26:00,27.9,14.2,30.00,ESE,102,0.0,2.0,56,0.00,,---,0.00,VWS V14.01,2013-02-20 18:26:00,
2013-02-20 13:31:00,28.0,14.3,30.00,North,5,0.0,1.0,56,0.00,,---,0.00,VWS V14.01,2013-02-20 18:31:00,
2013-02-20 13:36:00,28.2,14.5,30.00,NNE,33,0.0,1.0,56,0.00,,---,0.00,VWS V14.01,2013-02-20 18:36:00,
2013-02-20 13:41:00,28.4,14.7,30.00,West,266,1.0,4.0,56,0.00,,---,0.00,VWS V14.01,2013-02-20 18:41:00,
2013-02-20 13:46:00,28.7,15.0,30.00,SSE,150,1.0,1.0,56,0.00,,---,0.00,VWS V14.01,2013-02-20 18:46:00,
2013-02-20 13:52:00,28.8,14.7,30.00,NE,41,3.0,4.0,55,0.00,,---,0.00,VWS V14.01,2013-02-20 18:52:00,
2013-02-20 13:57:00,28.8,14.3,30.00,WSW,239,0.0,2.0,54,0.00,,---,0.00,VWS V14.01,2013-02-20 18:57:00,
2013-02-20 14:02:00,28.7,13.8,30.00,West,260,0.0,3.0,53,0.00,,---,0.00,VWS V14.01,2013-02-20 19:02:00,
2013-02-20 14:07:00,29.0,14.4,30.00,NE,43,5.0,5.0,54,0.00,,---,0.00,VWS V14.01,2013-02-20 19:07:00,
2013-02-20 14:12:00,29.4,14.8,30.00,SSW,197,2.0,2.0,54,0.00,,---,0.00,VWS V14.01,2013-02-20 19:12:00,
2013-02-20 14:17:00,29.6,15.0,30.00,NNE,30,1.0,4.0,54,0.00,,---,0.00,VWS V14.01,2013-02-20 19:17:00,
2013-02-20 14:22:00,29.5,15.3,30.00,NNE,27,4.0,4.0,55,0.00,,---,0.00,VWS V14.01,2013-02-20 19:22:00,
2013-02-20 14:27:00,29.6,14.6,30.00,WNW,283,0.0,3.0,53,0.00,,---,0.00,VWS V14.01,2013-02-20 19:27:00,
2013-02-20 14:32:00,29.6,15.0,30.00,NNE,25,2.0,2.0,54,0.00,,---,0.00,VWS V14.01,2013-02-20 19:32:00,
2013-02-20 14:37:00,29.5,14.9,30.00,North,5,2.0,2.0,54,0.00,,---,0.00,VWS V14.01,2013-02-20 19:37:00,
2013-02-20 14:42:00,29.3,15.1,30.00,East,91,1.0,4.0,55,0.00,,---,0.00,VWS V14.01,2013-02-20 19:42:00,
2013-02-20 14:47:00,29.3,14.3,30.00,WNW,287,2.0,5.0,53,0.00,,---,0.00,VWS V14.01,2013-02-20 19:47:00,
2013-02-20 14:52:00,29.7,14.7,30.00,NNW,339,5.0,6.0,53,0.00,,---,0.00,VWS V14.01,2013-02-20 19:52:00,
2013-02-20 14:58:00,30.0,14.5,30.00,WNW,296,1.0,1.0,52,0.00,,---,0.00,VWS V14.01,2013-02-20 19:58:00,
2013-02-20 15:03:00,30.3,15.2,30.00,NNW,335,1.0,1.0,53,0.00,,---,0.00,VWS V14.01,2013-02-20 20:03:00,
2013-02-20 15:08:00,30.3,14.4,30.01,NNE,25,3.0,5.0,51,0.00,,---,0.00,VWS V14.01,2013-02-20 20:08:00,
2013-02-20 15:13:00,30.2,14.3,30.01,West,264,1.0,3.0,51,0.00,,---,0.00,VWS V14.01,2013-02-20 20:13:00,
2013-02-20 15:18:00,30.1,14.2,30.01,NW,304,1.0,4.0,51,0.00,,---,0.00,VWS V14.01,2013-02-20 20:18:00,
2013-02-20 15:23:00,29.8,13.9,30.02,NNW,335,0.0,0.0,51,0.00,,---,0.00,VWS V14.01,2013-02-20 20:23:00,
2013-02-20 15:28:00,29.6,13.7,30.02,NNW,330,1.0,8.0,51,0.00,,---,0.00,VWS V14.01,2013-02-20 20:28:00,
2013-02-20 15:33:00,29.4,14.4,30.02,NW,325,0.0,2.0,53,0.00,,---,0.00,VWS V14.01,2013-02-20 20:33:00,
2013-02-20 15:38:00,29.1,13.7,30.02,North,356,2.0,4.0,52,0.00,,---,0.00,VWS V14.01,2013-02-20 20:38:00,
2013-02-20 15:43:00,28.8,14.3,30.03,NNE,25,1.0,1.0,54,0.00,,---,0.00,VWS V14.01,2013-02-20 20:43:00,
2013-02-20 15:48:00,28.4,14.3,30.03,WNW,302,2.0,4.0,55,0.00,,---,0.00,VWS V14.01,2013-02-20 20:48:00,
2013-02-20 15:53:00,28.0,14.3,30.04,NNE,20,1.0,1.0,56,0.00,,---,0.00,VWS V14.01,2013-02-20 20:53:00,
2013-02-20 15:59:00,27.8,14.6,30.04,NNE,27,4.0,4.0,57,0.00,,---,0.00,VWS V14.01,2013-02-20 20:59:00,
2013-02-20 16:04:00,27.5,13.9,30.05,North,7,4.0,4.0,56,0.00,,---,0.00,VWS V14.01,2013-02-20 21:04:00,
2013-02-20 16:09:00,27.4,14.2,30.05,West,269,3.0,7.0,57,0.00,,---,0.00,VWS V14.01,2013-02-20 21:09:00,
2013-02-20 16:14:00,27.0,13.4,30.05,WSW,253,0.0,1.0,56,0.00,,---,0.00,VWS V14.01,2013-02-20 21:14:00,
2013-02-20 16:19:00,26.8,13.2,30.05,SSW,205,4.0,4.0,56,0.00,,---,0.00,VWS V14.01,2013-02-20 21:19:00,
2013-02-20 16:24:00,26.6,13.4,30.05,NNE,27,4.0,5.0,57,0.00,,---,0.00,VWS V14.01,2013-02-20 21:24:00,
2013-02-20 16:29:00,26.5,13.3,30.05,NNW,331,0.0,2.0,57,0.00,,---,0.00,VWS V14.01,2013-02-20 21:29:00,
2013-02-20 16:34:00,26.5,13.3,30.05,NNW,347,4.0,4.0,57,0.00,,---,0.00,VWS V14.01,2013-02-20 21:34:00,
2013-02-20 16:39:00,26.4,12.4,30.06,NNE,27,2.0,3.0,55,0.00,,---,0.00,VWS V14.01,2013-02-20 21:39:00,
2013-02-20 16:44:00,26.4,12.8,30.07,North,354,0.0,1.0,56,0.00,,---,0.00,VWS V14.01,2013-02-20 21:44:00,
2013-02-20 16:49:00,26.4,12.8,30.07,SW,218,3.0,3.0,56,0.00,,---,0.00,VWS V14.01,2013-02-20 21:49:00,
2013-02-20 16:54:00,26.3,12.8,30.07,West,271,0.0,3.0,56,0.00,,---,0.00,VWS V14.01,2013-02-20 21:54:00,
2013-02-20 16:59:00,25.9,12.8,30.08,North,11,1.0,3.0,57,0.00,,---,0.00,VWS V14.01,2013-02-20 21:59:00,
2013-02-20 17:04:00,25.7,12.6,30.07,NW,321,0.0,8.0,57,0.00,,---,0.00,VWS V14.01,2013-02-20 22:04:00,
2013-02-20 17:09:00,25.5,12.4,30.08,North,356,1.0,2.0,57,0.00,,---,0.00,VWS V14.01,2013-02-20 22:09:00,
2013-02-20 17:14:00,25.4,12.3,30.08,NNW,340,1.0,3.0,57,0.00,,---,0.00,VWS V14.01,2013-02-20 22:14:00,
2013-02-20 17:19:00,25.2,12.1,30.08,ESE,121,2.0,2.0,57,0.00,,---,0.00,VWS V14.01,2013-02-20 22:19:00,
2013-02-20 17:24:00,25.0,11.9,30.09,NW,311,1.0,5.0,57,0.00,,---,0.00,VWS V14.01,2013-02-20 22:24:00,
2013-02-20 17:29:00,24.8,11.3,30.09,NNE,13,2.0,2.0,56,0.00,,---,0.00,VWS V14.01,2013-02-20 22:29:00,
2013-02-20 17:34:00,24.6,11.2,30.10,NW,304,2.0,5.0,56,0.00,,---,0.00,VWS V14.01,2013-02-20 22:34:00,
2013-02-20 17:39:00,24.4,11.4,30.10,North,354,2.0,2.0,57,0.00,,---,0.00,VWS V14.01,2013-02-20 22:39:00,
2013-02-20 17:44:00,24.2,10.8,30.10,NW,304,3.0,5.0,56,0.00,,---,0.00,VWS V14.01,2013-02-20 22:44:00,
2013-02-20 17:49:00,24.0,10.6,30.10,NW,326,1.0,1.0,56,0.00,,---,0.00,VWS V14.01,2013-02-20 22:49:00,
2013-02-20 17:55:00,23.7,10.7,30.11,NW,307,6.0,6.0,57,0.00,,---,0.00,VWS V14.01,2013-02-20 22:55:00,
2013-02-20 18:00:00,23.5,10.9,30.11,NW,305,0.0,0.0,58,0.00,,---,0.00,VWS V14.01,2013-02-20 23:00:00,
2013-02-20 18:05:00,23.3,10.3,30.11,NW,323,1.0,3.0,57,0.00,,---,0.00,VWS V14.01,2013-02-20 23:05:00,
2013-02-20 18:10:00,23.1,10.5,30.11,ESE,107,0.0,2.0,58,0.00,,---,0.00,VWS V14.01,2013-02-20 23:10:00,
2013-02-20 18:15:00,22.9,10.3,30.10,NNW,333,1.0,4.0,58,0.00,,---,0.00,VWS V14.01,2013-02-20 23:15:00,
2013-02-20 18:20:00,22.6,10.4,30.11,NNW,338,1.0,1.0,59,0.00,,---,0.00,VWS V14.01,2013-02-20 23:20:00,
2013-02-20 18:25:00,22.4,10.3,30.10,North,352,4.0,4.0,59,0.00,,---,0.00,VWS V14.01,2013-02-20 23:25:00,
2013-02-20 18:30:00,22.3,10.2,30.11,NNW,345,3.0,5.0,59,0.00,,---,0.00,VWS V14.01,2013-02-20 23:30:00,
2013-02-20 18:35:00,22.2,9.3,30.12,NW,304,0.0,1.0,57,0.00,,---,0.00,VWS V14.01,2013-02-20 23:35:00,
2013-02-20 18:40:00,22.1,10.0,30.12,WSW,249,0.0,1.0,59,0.00,,---,0.00,VWS V14.01,2013-02-20 23:40:00,
2013-02-20 18:45:00,22.1,9.6,30.12,NW,316,5.0,9.0,58,0.00,,---,0.00,VWS V14.01,2013-02-20 23:45:00,
2013-02-20 18:50:00,22.1,9.6,30.12,SSE,149,2.0,4.0,58,0.00,,---,0.00,VWS V14.01,2013-02-20 23:50:00,
2013-02-20 18:56:00,22.0,9.9,30.12,NNW,329,0.0,0.0,59,0.00,,---,0.00,VWS V14.01,2013-02-20 23:56:00,
2013-02-20 19:01:00,21.9,9.4,30.13,NW,326,1.0,4.0,58,0.00,,---,0.00,VWS V14.01,2013-02-21 00:01:00,
2013-02-20 19:06:00,21.9,9.4,30.13,NNW,329,0.0,1.0,58,0.00,,---,0.00,VWS V14.01,2013-02-21 00:06:00,
2013-02-20 19:11:00,21.8,8.9,30.13,NNE,23,5.0,5.0,57,0.00,,---,0.00,VWS V14.01,2013-02-21 00:11:00,
2013-02-20 19:16:00,21.7,9.2,30.13,NNE,19,0.0,2.0,58,0.00,,---,0.00,VWS V14.01,2013-02-21 00:16:00,
2013-02-20 19:21:00,21.5,9.4,30.13,North,360,0.0,2.0,59,0.00,,---,0.00,VWS V14.01,2013-02-21 00:21:00,
2013-02-20 19:26:00,21.4,9.3,30.13,North,1,3.0,3.0,59,0.00,,---,0.00,VWS V14.01,2013-02-21 00:26:00,
2013-02-20 19:31:00,21.3,8.8,30.12,North,11,2.0,4.0,58,0.00,,---,0.00,VWS V14.01,2013-02-21 00:31:00,
2013-02-20 19:36:00,21.3,9.6,30.12,NNW,335,1.0,3.0,60,0.00,,---,0.00,VWS V14.01,2013-02-21 00:36:00,
2013-02-20 19:41:00,21.2,9.5,30.12,NNE,27,2.0,3.0,60,0.00,,---,0.00,VWS V14.01,2013-02-21 00:41:00,
2013-02-20 19:46:00,21.2,9.5,30.12,WNW,300,0.0,5.0,60,0.00,,---,0.00,VWS V14.01,2013-02-21 00:46:00,
2013-02-20 19:51:00,21.1,9.8,30.11,NNE,19,1.0,5.0,61,0.00,,---,0.00,VWS V14.01,2013-02-21 00:51:00,
2013-02-20 19:56:00,21.0,9.7,30.12,ENE,64,0.0,0.0,61,0.00,,---,0.00,VWS V14.01,2013-02-21 00:56:00,
2013-02-20 20:01:00,20.9,9.6,30.13,SSW,212,0.0,1.0,61,0.00,,---,0.00,VWS V14.01,2013-02-21 01:01:00,
2013-02-20 20:07:00,20.9,9.6,30.14,WNW,287,1.0,3.0,61,0.00,,---,0.00,VWS V14.01,2013-02-21 01:07:00,
2013-02-20 20:12:00,20.8,9.5,30.13,NNW,342,1.0,1.0,61,0.00,,---,0.00,VWS V14.01,2013-02-21 01:12:00,
2013-02-20 20:17:00,20.8,9.9,30.13,North,356,2.0,2.0,62,0.00,,---,0.00,VWS V14.01,2013-02-21 01:17:00,
2013-02-20 20:22:00,20.7,9.8,30.12,North,11,0.0,1.0,62,0.00,,---,0.00,VWS V14.01,2013-02-21 01:22:00,
2013-02-20 20:27:00,20.7,9.8,30.12,NE,37,3.0,4.0,62,0.00,,---,0.00,VWS V14.01,2013-02-21 01:27:00,
2013-02-20 20:32:00,20.7,9.8,30.13,ENE,57,0.0,0.0,62,0.00,,---,0.00,VWS V14.01,2013-02-21 01:32:00,
2013-02-20 20:37:00,20.6,9.7,30.14,NE,41,0.0,1.0,62,0.00,,---,0.00,VWS V14.01,2013-02-21 01:37:00,
2013-02-20 20:42:00,20.6,9.7,30.14,NNW,330,0.0,2.0,62,0.00,,---,0.00,VWS V14.01,2013-02-21 01:42:00,
2013-02-20 20:47:00,20.6,9.7,30.14,NNW,337,0.0,2.0,62,0.00,,---,0.00,VWS V14.01,2013-02-21 01:47:00,
2013-02-20 20:52:00,20.6,9.7,30.14,NW,317,2.0,11.0,62,0.00,,---,0.00,VWS V14.01,2013-02-21 01:52:00,
2013-02-20 20:57:00,20.6,9.7,30.14,North,5,1.0,1.0,62,0.00,,---,0.00,VWS V14.01,2013-02-21 01:57:00,
2013-02-20 21:02:00,20.6,9.7,30.14,NNW,347,0.0,1.0,62,0.00,,---,0.00,VWS V14.01,2013-02-21 02:02:00,
2013-02-20 21:07:00,20.6,9.7,30.13,NW,305,1.0,3.0,62,0.00,,---,0.00,VWS V14.01,2013-02-21 02:07:00,
2013-02-20 21:12:00,20.6,9.7,30.13,ENE,61,2.0,2.0,62,0.00,,---,0.00,VWS V14.01,2013-02-21 02:12:00,
2013-02-20 21:18:00,20.6,9.7,30.14,NNE,13,0.0,0.0,62,0.00,,---,0.00,VWS V14.01,2013-02-21 02:18:00,
2013-02-20 21:23:00,20.5,10.3,30.14,ENE,76,3.0,5.0,64,0.00,,---,0.00,VWS V14.01,2013-02-21 02:23:00,
2013-02-20 21:28:00,20.7,10.1,30.15,ENE,61,1.0,2.0,63,0.00,,---,0.00,VWS V14.01,2013-02-21 02:28:00,
2013-02-20 21:33:00,20.8,10.2,30.16,West,269,3.0,5.0,63,0.00,,---,0.00,VWS V14.01,2013-02-21 02:33:00,
2013-02-20 21:38:00,20.9,9.9,30.16,NNW,343,0.0,0.0,62,0.00,,---,0.00,VWS V14.01,2013-02-21 02:38:00,
2013-02-20 21:43:00,21.1,10.5,30.15,NW,306,1.0,1.0,63,0.00,,---,0.00,VWS V14.01,2013-02-21 02:43:00,
2013-02-20 21:48:00,21.1,10.1,30.15,NW,307,3.0,5.0,62,0.00,,---,0.00,VWS V14.01,2013-02-21 02:48:00,
2013-02-20 21:53:00,21.1,10.1,30.15,ENE,65,0.0,3.0,62,0.00,,---,0.00,VWS V14.01,2013-02-21 02:53:00,
2013-02-20 21:58:00,21.2,10.6,30.16,WSW,240,2.0,3.0,63,0.00,,---,0.00,VWS V14.01,2013-02-21 02:58:00,
2013-02-20 22:03:00,21.2,10.2,30.16,SSW,212,1.0,3.0,62,0.00,,---,0.00,VWS V14.01,2013-02-21 03:03:00,
2013-02-20 22:08:00,21.3,10.3,30.15,WNW,295,1.0,2.0,62,0.00,,---,0.00,VWS V14.01,2013-02-21 03:08:00,
2013-02-20 22:13:00,21.3,10.3,30.15,NNW,327,0.0,3.0,62,0.00,,---,0.00,VWS V14.01,2013-02-21 03:13:00,
2013-02-20 22:18:00,21.3,10.7,30.15,SSW,212,0.0,4.0,63,0.00,,---,0.00,VWS V14.01,2013-02-21 03:18:00,
2013-02-20 22:23:00,21.3,10.3,30.16,NE,52,4.0,5.0,62,0.00,,---,0.00,VWS V14.01,2013-02-21 03:23:00,
2013-02-20 22:28:00,21.3,10.3,30.16,NW,312,4.0,4.0,62,0.00,,---,0.00,VWS V14.01,2013-02-21 03:28:00,
2013-02-20 22:33:00,21.3,10.3,30.16,NW,323,2.0,3.0,62,0.00,,---,0.00,VWS V14.01,2013-02-21 03:33:00,
2013-02-20 22:38:00,21.3,10.3,30.16,ESE,106,0.0,3.0,62,0.00,,---,0.00,VWS V14.01,2013-02-21 03:38:00,
2013-02-20 22:43:00,21.3,10.3,30.16,ENE,74,0.0,6.0,62,0.00,,---,0.00,VWS V14.01,2013-02-21 03:43:00,
2013-02-20 22:48:00,21.3,10.7,30.16,NNE,18,0.0,2.0,63,0.00,,---,0.00,VWS V14.01,2013-02-21 03:48:00,
2013-02-20 22:53:00,21.3,10.3,30.16,NW,305,2.0,3.0,62,0.00,,---,0.00,VWS V14.01,2013-02-21 03:53:00,
2013-02-20 22:58:00,21.4,10.8,30.16,East,89,0.0,0.0,63,0.00,,---,0.00,VWS V14.01,2013-02-21 03:58:00,
2013-02-20 23:04:00,21.4,10.8,30.16,ENE,58,3.0,4.0,63,0.00,,---,0.00,VWS V14.01,2013-02-21 04:04:00,
2013-02-20 23:09:00,21.4,11.1,30.16,NNW,348,5.0,5.0,64,0.00,,---,0.00,VWS V14.01,2013-02-21 04:09:00,
2013-02-20 23:14:00,21.4,11.1,30.14,North,358,2.0,2.0,64,0.00,,---,0.00,VWS V14.01,2013-02-21 04:14:00,
2013-02-20 23:19:00,21.3,11.0,30.15,NNW,339,2.0,5.0,64,0.00,,---,0.00,VWS V14.01,2013-02-21 04:19:00,
2013-02-20 23:24:00,21.3,10.7,30.16,NE,49,1.0,1.0,63,0.00,,---,0.00,VWS V14.01,2013-02-21 04:24:00,
2013-02-20 23:29:00,21.4,11.1,30.15,NNW,345,1.0,3.0,64,0.00,,---,0.00,VWS V14.01,2013-02-21 04:29:00,
2013-02-20 23:34:00,21.3,11.0,30.14,NE,53,1.0,2.0,64,0.00,,---,0.00,VWS V14.01,2013-02-21 04:34:00,
2013-02-20 23:39:00,21.3,11.0,30.15,WNW,301,1.0,3.0,64,0.00,,---,0.00,VWS V14.01,2013-02-21 04:39:00,
2013-02-20 23:44:00,21.2,10.9,30.15,WNW,286,0.0,4.0,64,0.00,,---,0.00,VWS V14.01,2013-02-21 04:44:00,
2013-02-20 23:49:00,21.2,10.9,30.15,SSW,210,2.0,4.0,64,0.00,,---,0.00,VWS V14.01,2013-02-21 04:49:00,
2013-02-20 23:54:00,21.1,10.8,30.15,SW,219,1.0,5.0,64,0.00,,---,0.00,VWS V14.01,2013-02-21 04:54:00,
2013-02-20 23:59:00,21.1,10.8,30.15,North,7,1.0,8.0,64,0.00,,---,0.00,VWS V14.01,2013-02-21 04:59:00,